sensor_id;sensor_type;location;lat;lon;timestamp;P1;durP1;ratioP1;P2;durP2;ratioP2
27740;SDS011;15134;48.768;9.184;2023-12-28T00:01:20;855.03;;;742.23;;
27740;SDS011;15134;48.768;9.184;2023-12-28T00:03:47;856.58;;;741.45;;
27740;SDS011;15134;48.768;9.184;2023-12-28T00:06:13;856.33;;;743.47;;
27740;SDS011;15134;48.768;9.184;2023-12-28T00:08:39;859.07;;;742.50;;
27740;SDS011;15134;48.768;9.184;2023-12-28T00:11:05;853.83;;;739.92;;
27740;SDS011;15134;48.768;9.184;2023-12-28T00:13:31;855.13;;;738.27;;
27740;SDS011;15134;48.768;9.184;2023-12-28T00:15:57;854.67;;;738.30;;
27740;SDS011;15134;48.768;9.184;2023-12-28T00:18:22;856.00;;;742.00;;
27740;SDS011;15134;48.768;9.184;2023-12-28T00:20:49;859.63;;;750.10;;
27740;SDS011;15134;48.768;9.184;2023-12-28T00:23:15;858.95;;;748.65;;
27740;SDS011;15134;48.768;9.184;2023-12-28T00:25:41;861.42;;;753.25;;
27740;SDS011;15134;48.768;9.184;2023-12-28T00:28:06;859.45;;;750.17;;
27740;SDS011;15134;48.768;9.184;2023-12-28T00:30:32;860.10;;;754.08;;
27740;SDS011;15134;48.768;9.184;2023-12-28T00:32:58;862.63;;;758.60;;
27740;SDS011;15134;48.768;9.184;2023-12-28T00:35:24;862.85;;;758.65;;
27740;SDS011;15134;48.768;9.184;2023-12-28T00:37:50;860.25;;;755.83;;
27740;SDS011;15134;48.768;9.184;2023-12-28T00:40:15;862.00;;;755.45;;
27740;SDS011;15134;48.768;9.184;2023-12-28T00:42:41;859.35;;;751.90;;
27740;SDS011;15134;48.768;9.184;2023-12-28T00:45:07;860.38;;;754.20;;
27740;SDS011;15134;48.768;9.184;2023-12-28T00:47:35;858.78;;;748.78;;
27740;SDS011;15134;48.768;9.184;2023-12-28T00:50:01;859.45;;;750.33;;
27740;SDS011;15134;48.768;9.184;2023-12-28T00:52:27;857.45;;;747.20;;
27740;SDS011;15134;48.768;9.184;2023-12-28T00:54:52;857.13;;;747.35;;
27740;SDS011;15134;48.768;9.184;2023-12-28T00:57:18;858.53;;;748.90;;
27740;SDS011;15134;48.768;9.184;2023-12-28T00:59:44;856.90;;;746.33;;
27740;SDS011;15134;48.768;9.184;2023-12-28T01:02:10;852.10;;;737.22;;
27740;SDS011;15134;48.768;9.184;2023-12-28T01:04:35;854.50;;;737.53;;
27740;SDS011;15134;48.768;9.184;2023-12-28T01:07:02;853.65;;;734.08;;
27740;SDS011;15134;48.768;9.184;2023-12-28T01:09:30;855.97;;;744.28;;
27740;SDS011;15134;48.768;9.184;2023-12-28T01:11:57;854.30;;;737.67;;
27740;SDS011;15134;48.768;9.184;2023-12-28T01:14:24;853.60;;;738.72;;
27740;SDS011;15134;48.768;9.184;2023-12-28T01:16:49;848.07;;;726.07;;
27740;SDS011;15134;48.768;9.184;2023-12-28T01:19:16;853.65;;;734.60;;
27740;SDS011;15134;48.768;9.184;2023-12-28T01:21:41;853.53;;;737.28;;
27740;SDS011;15134;48.768;9.184;2023-12-28T01:24:07;854.83;;;738.17;;
27740;SDS011;15134;48.768;9.184;2023-12-28T01:26:33;857.38;;;741.65;;
27740;SDS011;15134;48.768;9.184;2023-12-28T01:28:59;855.33;;;740.10;;
27740;SDS011;15134;48.768;9.184;2023-12-28T01:31:28;857.38;;;742.30;;
27740;SDS011;15134;48.768;9.184;2023-12-28T01:33:54;854.28;;;739.67;;
27740;SDS011;15134;48.768;9.184;2023-12-28T01:36:20;856.80;;;744.47;;
27740;SDS011;15134;48.768;9.184;2023-12-28T01:38:47;855.65;;;740.35;;
27740;SDS011;15134;48.768;9.184;2023-12-28T01:41:13;855.90;;;742.35;;
27740;SDS011;15134;48.768;9.184;2023-12-28T01:43:40;856.75;;;742.25;;
27740;SDS011;15134;48.768;9.184;2023-12-28T01:46:07;857.83;;;743.90;;
27740;SDS011;15134;48.768;9.184;2023-12-28T01:48:37;855.97;;;739.85;;
27740;SDS011;15134;48.768;9.184;2023-12-28T01:51:04;858.72;;;742.10;;
27740;SDS011;15134;48.768;9.184;2023-12-28T01:53:30;851.33;;;733.67;;
27740;SDS011;15134;48.768;9.184;2023-12-28T01:55:55;853.57;;;737.13;;
27740;SDS011;15134;48.768;9.184;2023-12-28T01:58:22;854.27;;;735.70;;
27740;SDS011;15134;48.768;9.184;2023-12-28T02:00:49;859.53;;;742.85;;
27740;SDS011;15134;48.768;9.184;2023-12-28T02:03:15;855.58;;;739.60;;
27740;SDS011;15134;48.768;9.184;2023-12-28T02:05:41;855.87;;;739.93;;
27740;SDS011;15134;48.768;9.184;2023-12-28T02:08:07;852.63;;;736.83;;
27740;SDS011;15134;48.768;9.184;2023-12-28T02:10:33;851.15;;;733.15;;
27740;SDS011;15134;48.768;9.184;2023-12-28T02:12:59;852.30;;;736.20;;
27740;SDS011;15134;48.768;9.184;2023-12-28T02:15:25;852.93;;;733.67;;
27740;SDS011;15134;48.768;9.184;2023-12-28T02:17:52;853.67;;;734.03;;
27740;SDS011;15134;48.768;9.184;2023-12-28T02:20:19;853.53;;;734.45;;
27740;SDS011;15134;48.768;9.184;2023-12-28T02:22:47;852.22;;;734.50;;
27740;SDS011;15134;48.768;9.184;2023-12-28T02:25:14;855.20;;;739.08;;
27740;SDS011;15134;48.768;9.184;2023-12-28T02:27:47;854.00;;;737.92;;
27740;SDS011;15134;48.768;9.184;2023-12-28T02:30:18;854.22;;;735.53;;
27740;SDS011;15134;48.768;9.184;2023-12-28T02:35:42;853.83;;;736.15;;
27740;SDS011;15134;48.768;9.184;2023-12-28T02:38:11;856.70;;;740.70;;
27740;SDS011;15134;48.768;9.184;2023-12-28T02:40:39;850.88;;;726.40;;
27740;SDS011;15134;48.768;9.184;2023-12-28T02:43:07;854.13;;;735.78;;
27740;SDS011;15134;48.768;9.184;2023-12-28T02:45:35;854.42;;;735.78;;
27740;SDS011;15134;48.768;9.184;2023-12-28T02:48:01;851.88;;;729.88;;
27740;SDS011;15134;48.768;9.184;2023-12-28T02:50:28;852.63;;;733.95;;
27740;SDS011;15134;48.768;9.184;2023-12-28T02:52:55;853.95;;;731.75;;
27740;SDS011;15134;48.768;9.184;2023-12-28T02:55:21;851.43;;;732.37;;
27740;SDS011;15134;48.768;9.184;2023-12-28T02:57:48;852.17;;;733.03;;
27740;SDS011;15134;48.768;9.184;2023-12-28T03:00:15;852.08;;;728.05;;
27740;SDS011;15134;48.768;9.184;2023-12-28T03:02:41;853.65;;;736.30;;
27740;SDS011;15134;48.768;9.184;2023-12-28T03:05:08;853.38;;;733.10;;
27740;SDS011;15134;48.768;9.184;2023-12-28T03:07:34;854.22;;;733.33;;
27740;SDS011;15134;48.768;9.184;2023-12-28T03:10:01;849.75;;;725.63;;
27740;SDS011;15134;48.768;9.184;2023-12-28T03:12:28;851.17;;;731.20;;
27740;SDS011;15134;48.768;9.184;2023-12-28T03:14:54;854.70;;;736.50;;
27740;SDS011;15134;48.768;9.184;2023-12-28T03:17:20;855.03;;;739.90;;
27740;SDS011;15134;48.768;9.184;2023-12-28T03:19:47;853.20;;;736.75;;
27740;SDS011;15134;48.768;9.184;2023-12-28T03:22:12;851.92;;;732.03;;
27740;SDS011;15134;48.768;9.184;2023-12-28T03:24:39;851.47;;;731.65;;
27740;SDS011;15134;48.768;9.184;2023-12-28T03:27:05;853.42;;;735.25;;
27740;SDS011;15134;48.768;9.184;2023-12-28T03:29:31;854.47;;;739.17;;
27740;SDS011;15134;48.768;9.184;2023-12-28T03:31:57;854.10;;;738.55;;
27740;SDS011;15134;48.768;9.184;2023-12-28T03:34:24;849.33;;;728.13;;
27740;SDS011;15134;48.768;9.184;2023-12-28T03:36:51;853.38;;;732.35;;
27740;SDS011;15134;48.768;9.184;2023-12-28T03:39:17;851.23;;;732.40;;
27740;SDS011;15134;48.768;9.184;2023-12-28T03:41:43;851.53;;;731.40;;
27740;SDS011;15134;48.768;9.184;2023-12-28T03:44:10;854.42;;;735.05;;
27740;SDS011;15134;48.768;9.184;2023-12-28T03:46:36;853.22;;;731.90;;
27740;SDS011;15134;48.768;9.184;2023-12-28T03:49:01;853.60;;;734.78;;
27740;SDS011;15134;48.768;9.184;2023-12-28T03:51:27;853.28;;;730.65;;
27740;SDS011;15134;48.768;9.184;2023-12-28T03:53:53;851.50;;;726.67;;
27740;SDS011;15134;48.768;9.184;2023-12-28T03:56:21;851.47;;;724.83;;
27740;SDS011;15134;48.768;9.184;2023-12-28T03:58:48;848.38;;;722.90;;
27740;SDS011;15134;48.768;9.184;2023-12-28T04:01:14;850.67;;;723.13;;
27740;SDS011;15134;48.768;9.184;2023-12-28T04:03:41;848.25;;;721.65;;
27740;SDS011;15134;48.768;9.184;2023-12-28T04:06:06;852.47;;;732.05;;
27740;SDS011;15134;48.768;9.184;2023-12-28T04:08:32;847.72;;;718.80;;
27740;SDS011;15134;48.768;9.184;2023-12-28T04:10:58;852.40;;;732.67;;
27740;SDS011;15134;48.768;9.184;2023-12-28T04:13:23;849.47;;;722.53;;
27740;SDS011;15134;48.768;9.184;2023-12-28T04:15:49;849.43;;;721.87;;
27740;SDS011;15134;48.768;9.184;2023-12-28T04:18:15;848.00;;;718.58;;
27740;SDS011;15134;48.768;9.184;2023-12-28T04:20:44;852.17;;;727.10;;
27740;SDS011;15134;48.768;9.184;2023-12-28T04:23:12;853.35;;;734.80;;
27740;SDS011;15134;48.768;9.184;2023-12-28T04:25:39;852.67;;;729.85;;
27740;SDS011;15134;48.768;9.184;2023-12-28T04:28:04;848.25;;;722.85;;
27740;SDS011;15134;48.768;9.184;2023-12-28T04:30:31;850.78;;;725.95;;
27740;SDS011;15134;48.768;9.184;2023-12-28T04:32:57;849.27;;;722.43;;
27740;SDS011;15134;48.768;9.184;2023-12-28T04:35:23;848.63;;;722.72;;
27740;SDS011;15134;48.768;9.184;2023-12-28T04:37:49;849.60;;;719.10;;
27740;SDS011;15134;48.768;9.184;2023-12-28T04:40:15;845.27;;;712.37;;
27740;SDS011;15134;48.768;9.184;2023-12-28T04:42:42;848.50;;;720.97;;
27740;SDS011;15134;48.768;9.184;2023-12-28T04:45:08;845.38;;;711.88;;
27740;SDS011;15134;48.768;9.184;2023-12-28T04:47:35;847.17;;;716.63;;
27740;SDS011;15134;48.768;9.184;2023-12-28T04:50:02;842.97;;;707.70;;
27740;SDS011;15134;48.768;9.184;2023-12-28T04:52:31;850.20;;;724.05;;
27740;SDS011;15134;48.768;9.184;2023-12-28T04:54:57;856.10;;;723.92;;
27740;SDS011;15134;48.768;9.184;2023-12-28T04:57:23;850.47;;;724.55;;
27740;SDS011;15134;48.768;9.184;2023-12-28T04:59:50;850.13;;;723.40;;
27740;SDS011;15134;48.768;9.184;2023-12-28T05:02:17;844.13;;;707.83;;
27740;SDS011;15134;48.768;9.184;2023-12-28T05:04:43;848.60;;;716.80;;
27740;SDS011;15134;48.768;9.184;2023-12-28T05:07:09;848.08;;;721.15;;
27740;SDS011;15134;48.768;9.184;2023-12-28T05:09:35;847.13;;;716.97;;
27740;SDS011;15134;48.768;9.184;2023-12-28T05:12:01;842.95;;;710.75;;
27740;SDS011;15134;48.768;9.184;2023-12-28T05:14:27;846.53;;;716.47;;
27740;SDS011;15134;48.768;9.184;2023-12-28T05:16:53;844.20;;;713.60;;
27740;SDS011;15134;48.768;9.184;2023-12-28T05:19:19;849.78;;;721.60;;
27740;SDS011;15134;48.768;9.184;2023-12-28T05:21:44;846.97;;;716.08;;
27740;SDS011;15134;48.768;9.184;2023-12-28T05:24:11;845.53;;;718.83;;
27740;SDS011;15134;48.768;9.184;2023-12-28T05:26:37;851.15;;;729.22;;
27740;SDS011;15134;48.768;9.184;2023-12-28T05:29:03;849.72;;;722.53;;
27740;SDS011;15134;48.768;9.184;2023-12-28T05:31:29;848.50;;;724.78;;
27740;SDS011;15134;48.768;9.184;2023-12-28T05:33:54;851.53;;;732.67;;
27740;SDS011;15134;48.768;9.184;2023-12-28T05:36:20;850.30;;;729.73;;
27740;SDS011;15134;48.768;9.184;2023-12-28T05:38:46;850.37;;;727.40;;
27740;SDS011;15134;48.768;9.184;2023-12-28T05:41:12;853.50;;;737.17;;
27740;SDS011;15134;48.768;9.184;2023-12-28T05:43:37;852.60;;;736.05;;
27740;SDS011;15134;48.768;9.184;2023-12-28T05:46:03;852.95;;;738.25;;
27740;SDS011;15134;48.768;9.184;2023-12-28T05:48:29;854.67;;;743.73;;
27740;SDS011;15134;48.768;9.184;2023-12-28T05:50:59;855.55;;;744.28;;
27740;SDS011;15134;48.768;9.184;2023-12-28T05:53:25;855.83;;;744.15;;
27740;SDS011;15134;48.768;9.184;2023-12-28T05:55:52;857.67;;;746.03;;
27740;SDS011;15134;48.768;9.184;2023-12-28T05:58:17;856.08;;;740.65;;
27740;SDS011;15134;48.768;9.184;2023-12-28T06:00:43;852.70;;;738.97;;
27740;SDS011;15134;48.768;9.184;2023-12-28T06:03:11;855.53;;;744.60;;
27740;SDS011;15134;48.768;9.184;2023-12-28T06:05:37;855.15;;;742.97;;
27740;SDS011;15134;48.768;9.184;2023-12-28T06:08:03;856.33;;;741.03;;
27740;SDS011;15134;48.768;9.184;2023-12-28T06:10:29;854.43;;;738.90;;
27740;SDS011;15134;48.768;9.184;2023-12-28T06:12:55;857.45;;;751.28;;
27740;SDS011;15134;48.768;9.184;2023-12-28T06:15:20;857.83;;;744.53;;
27740;SDS011;15134;48.768;9.184;2023-12-28T06:17:46;857.53;;;745.85;;
27740;SDS011;15134;48.768;9.184;2023-12-28T06:20:12;858.20;;;750.97;;
27740;SDS011;15134;48.768;9.184;2023-12-28T06:22:38;857.15;;;747.00;;
27740;SDS011;15134;48.768;9.184;2023-12-28T06:25:04;857.35;;;749.53;;
27740;SDS011;15134;48.768;9.184;2023-12-28T06:27:30;860.63;;;755.85;;
27740;SDS011;15134;48.768;9.184;2023-12-28T06:29:56;862.95;;;759.90;;
27740;SDS011;15134;48.768;9.184;2023-12-28T06:32:21;863.22;;;760.30;;
27740;SDS011;15134;48.768;9.184;2023-12-28T06:34:47;865.78;;;766.13;;
27740;SDS011;15134;48.768;9.184;2023-12-28T06:37:13;861.88;;;757.70;;
27740;SDS011;15134;48.768;9.184;2023-12-28T06:39:40;864.60;;;763.05;;
27740;SDS011;15134;48.768;9.184;2023-12-28T06:42:05;858.90;;;752.55;;
27740;SDS011;15134;48.768;9.184;2023-12-28T06:44:31;863.95;;;759.30;;
27740;SDS011;15134;48.768;9.184;2023-12-28T06:46:57;861.97;;;758.92;;
27740;SDS011;15134;48.768;9.184;2023-12-28T06:49:23;862.40;;;758.63;;
27740;SDS011;15134;48.768;9.184;2023-12-28T06:51:50;864.03;;;761.97;;
27740;SDS011;15134;48.768;9.184;2023-12-28T06:54:16;864.95;;;764.95;;
27740;SDS011;15134;48.768;9.184;2023-12-28T06:56:42;865.33;;;766.20;;
27740;SDS011;15134;48.768;9.184;2023-12-28T06:59:08;862.72;;;762.22;;
27740;SDS011;15134;48.768;9.184;2023-12-28T07:01:40;863.70;;;762.70;;
27740;SDS011;15134;48.768;9.184;2023-12-28T07:04:06;863.20;;;764.40;;
27740;SDS011;15134;48.768;9.184;2023-12-28T07:06:32;861.97;;;762.08;;
27740;SDS011;15134;48.768;9.184;2023-12-28T07:08:59;868.75;;;772.45;;
27740;SDS011;15134;48.768;9.184;2023-12-28T07:11:25;873.27;;;776.67;;
27740;SDS011;15134;48.768;9.184;2023-12-28T07:13:53;866.88;;;769.72;;
27740;SDS011;15134;48.768;9.184;2023-12-28T07:16:19;871.50;;;775.33;;
27740;SDS011;15134;48.768;9.184;2023-12-28T07:18:45;873.67;;;777.17;;
27740;SDS011;15134;48.768;9.184;2023-12-28T07:21:11;874.63;;;778.13;;
27740;SDS011;15134;48.768;9.184;2023-12-28T07:23:37;876.08;;;779.42;;
27740;SDS011;15134;48.768;9.184;2023-12-28T07:26:03;883.80;;;786.78;;
27740;SDS011;15134;48.768;9.184;2023-12-28T07:28:29;881.60;;;784.55;;
27740;SDS011;15134;48.768;9.184;2023-12-28T07:30:55;882.20;;;785.38;;
27740;SDS011;15134;48.768;9.184;2023-12-28T07:33:21;885.28;;;788.20;;
27740;SDS011;15134;48.768;9.184;2023-12-28T07:35:47;877.30;;;780.75;;
27740;SDS011;15134;48.768;9.184;2023-12-28T07:38:13;880.53;;;783.70;;
27740;SDS011;15134;48.768;9.184;2023-12-28T07:40:40;883.37;;;786.33;;
27740;SDS011;15134;48.768;9.184;2023-12-28T07:43:06;875.03;;;778.47;;
27740;SDS011;15134;48.768;9.184;2023-12-28T07:45:32;885.38;;;788.28;;
27740;SDS011;15134;48.768;9.184;2023-12-28T07:48:01;883.47;;;786.47;;
27740;SDS011;15134;48.768;9.184;2023-12-28T07:50:26;883.50;;;786.65;;
27740;SDS011;15134;48.768;9.184;2023-12-28T07:52:52;884.33;;;787.35;;
27740;SDS011;15134;48.768;9.184;2023-12-28T07:55:18;879.97;;;783.20;;
27740;SDS011;15134;48.768;9.184;2023-12-28T07:57:44;887.55;;;790.35;;
27740;SDS011;15134;48.768;9.184;2023-12-28T08:00:10;886.88;;;789.88;;
27740;SDS011;15134;48.768;9.184;2023-12-28T08:02:37;890.03;;;792.92;;
27740;SDS011;15134;48.768;9.184;2023-12-28T08:05:06;890.53;;;793.33;;
27740;SDS011;15134;48.768;9.184;2023-12-28T08:07:32;888.67;;;791.53;;
27740;SDS011;15134;48.768;9.184;2023-12-28T08:09:57;884.65;;;787.55;;
27740;SDS011;15134;48.768;9.184;2023-12-28T08:12:23;878.80;;;781.90;;
27740;SDS011;15134;48.768;9.184;2023-12-28T08:14:53;884.50;;;787.45;;
27740;SDS011;15134;48.768;9.184;2023-12-28T08:17:20;883.15;;;786.17;;
27740;SDS011;15134;48.768;9.184;2023-12-28T08:19:46;877.43;;;780.83;;
27740;SDS011;15134;48.768;9.184;2023-12-28T08:22:11;877.00;;;780.13;;
27740;SDS011;15134;48.768;9.184;2023-12-28T08:24:37;889.87;;;792.47;;
27740;SDS011;15134;48.768;9.184;2023-12-28T08:27:03;883.33;;;786.23;;
27740;SDS011;15134;48.768;9.184;2023-12-28T08:29:30;872.25;;;775.97;;
27740;SDS011;15134;48.768;9.184;2023-12-28T08:31:56;881.17;;;784.35;;
27740;SDS011;15134;48.768;9.184;2023-12-28T08:34:21;880.17;;;783.22;;
27740;SDS011;15134;48.768;9.184;2023-12-28T08:36:47;875.27;;;778.60;;
27740;SDS011;15134;48.768;9.184;2023-12-28T08:39:13;881.03;;;783.97;;
27740;SDS011;15134;48.768;9.184;2023-12-28T08:41:39;878.17;;;781.20;;
27740;SDS011;15134;48.768;9.184;2023-12-28T08:44:04;877.90;;;781.10;;
27740;SDS011;15134;48.768;9.184;2023-12-28T08:46:30;878.90;;;782.10;;
27740;SDS011;15134;48.768;9.184;2023-12-28T08:48:56;881.28;;;784.28;;
27740;SDS011;15134;48.768;9.184;2023-12-28T08:51:22;876.83;;;780.07;;
27740;SDS011;15134;48.768;9.184;2023-12-28T08:53:48;879.97;;;783.30;;
27740;SDS011;15134;48.768;9.184;2023-12-28T08:56:17;877.13;;;780.53;;
27740;SDS011;15134;48.768;9.184;2023-12-28T08:58:46;880.60;;;783.90;;
27740;SDS011;15134;48.768;9.184;2023-12-28T09:01:19;882.55;;;785.65;;
27740;SDS011;15134;48.768;9.184;2023-12-28T09:03:49;879.72;;;783.00;;
27740;SDS011;15134;48.768;9.184;2023-12-28T09:06:16;880.80;;;783.92;;
27740;SDS011;15134;48.768;9.184;2023-12-28T09:08:42;878.45;;;781.78;;
27740;SDS011;15134;48.768;9.184;2023-12-28T09:11:10;880.25;;;783.38;;
27740;SDS011;15134;48.768;9.184;2023-12-28T09:13:36;880.95;;;784.05;;
27740;SDS011;15134;48.768;9.184;2023-12-28T09:16:03;886.63;;;789.40;;
27740;SDS011;15134;48.768;9.184;2023-12-28T09:18:29;894.97;;;797.08;;
27740;SDS011;15134;48.768;9.184;2023-12-28T09:20:55;891.72;;;793.97;;
27740;SDS011;15134;48.768;9.184;2023-12-28T09:23:20;891.25;;;793.63;;
27740;SDS011;15134;48.768;9.184;2023-12-28T09:25:46;890.63;;;793.05;;
27740;SDS011;15134;48.768;9.184;2023-12-28T09:28:12;892.63;;;794.60;;
27740;SDS011;15134;48.768;9.184;2023-12-28T09:30:38;897.65;;;799.00;;
27740;SDS011;15134;48.768;9.184;2023-12-28T09:33:04;887.57;;;790.07;;
27740;SDS011;15134;48.768;9.184;2023-12-28T09:35:30;888.67;;;791.33;;
27740;SDS011;15134;48.768;9.184;2023-12-28T09:37:56;885.65;;;788.63;;
27740;SDS011;15134;48.768;9.184;2023-12-28T09:40:21;891.35;;;793.85;;
27740;SDS011;15134;48.768;9.184;2023-12-28T09:42:57;889.28;;;791.83;;
27740;SDS011;15134;48.768;9.184;2023-12-28T09:45:32;890.92;;;793.63;;
27740;SDS011;15134;48.768;9.184;2023-12-28T09:47:57;888.13;;;791.03;;
27740;SDS011;15134;48.768;9.184;2023-12-28T09:50:24;887.40;;;790.30;;
27740;SDS011;15134;48.768;9.184;2023-12-28T09:52:52;882.67;;;785.90;;
27740;SDS011;15134;48.768;9.184;2023-12-28T09:55:18;888.33;;;791.35;;
27740;SDS011;15134;48.768;9.184;2023-12-28T09:57:44;887.45;;;790.05;;
27740;SDS011;15134;48.768;9.184;2023-12-28T10:00:11;900.78;;;798.75;;
27740;SDS011;15134;48.768;9.184;2023-12-28T10:02:39;903.88;;;795.78;;
27740;SDS011;15134;48.768;9.184;2023-12-28T10:05:11;892.97;;;793.72;;
27740;SDS011;15134;48.768;9.184;2023-12-28T10:07:45;887.45;;;789.58;;
27740;SDS011;15134;48.768;9.184;2023-12-28T10:10:12;897.83;;;798.47;;
27740;SDS011;15134;48.768;9.184;2023-12-28T10:12:38;900.38;;;801.97;;
27740;SDS011;15134;48.768;9.184;2023-12-28T10:15:04;894.75;;;796.80;;
27740;SDS011;15134;48.768;9.184;2023-12-28T10:17:34;891.75;;;794.15;;
27740;SDS011;15134;48.768;9.184;2023-12-28T10:20:03;896.38;;;798.63;;
27740;SDS011;15134;48.768;9.184;2023-12-28T10:22:31;895.95;;;798.25;;
27740;SDS011;15134;48.768;9.184;2023-12-28T10:24:58;895.65;;;798.10;;
27740;SDS011;15134;48.768;9.184;2023-12-28T10:27:27;891.10;;;793.78;;
27740;SDS011;15134;48.768;9.184;2023-12-28T10:29:54;889.65;;;792.45;;
27740;SDS011;15134;48.768;9.184;2023-12-28T10:32:21;886.95;;;790.00;;
27740;SDS011;15134;48.768;9.184;2023-12-28T10:34:48;882.22;;;785.28;;
27740;SDS011;15134;48.768;9.184;2023-12-28T10:37:14;896.80;;;799.33;;
27740;SDS011;15134;48.768;9.184;2023-12-28T10:39:42;889.20;;;791.92;;
27740;SDS011;15134;48.768;9.184;2023-12-28T10:42:12;885.75;;;788.85;;
27740;SDS011;15134;48.768;9.184;2023-12-28T10:44:42;887.10;;;789.83;;
27740;SDS011;15134;48.768;9.184;2023-12-28T10:47:16;885.17;;;788.33;;
27740;SDS011;15134;48.768;9.184;2023-12-28T10:49:44;890.77;;;793.63;;
27740;SDS011;15134;48.768;9.184;2023-12-28T10:52:13;888.97;;;791.80;;
27740;SDS011;15134;48.768;9.184;2023-12-28T10:54:46;880.63;;;783.72;;
27740;SDS011;15134;48.768;9.184;2023-12-28T11:00:03;894.13;;;796.42;;
27740;SDS011;15134;48.768;9.184;2023-12-28T11:02:39;904.25;;;806.28;;
27740;SDS011;15134;48.768;9.184;2023-12-28T11:05:09;901.10;;;803.38;;
27740;SDS011;15134;48.768;9.184;2023-12-28T11:07:40;893.97;;;796.47;;
27740;SDS011;15134;48.768;9.184;2023-12-28T11:10:07;902.92;;;805.17;;
27740;SDS011;15134;48.768;9.184;2023-12-28T11:12:35;905.95;;;808.10;;
27740;SDS011;15134;48.768;9.184;2023-12-28T11:15:04;902.03;;;804.33;;
27740;SDS011;15134;48.768;9.184;2023-12-28T11:17:31;899.75;;;802.00;;
27740;SDS011;15134;48.768;9.184;2023-12-28T11:19:58;903.28;;;805.47;;
27740;SDS011;15134;48.768;9.184;2023-12-28T11:22:25;898.35;;;800.78;;
27740;SDS011;15134;48.768;9.184;2023-12-28T11:24:52;905.95;;;808.17;;
27740;SDS011;15134;48.768;9.184;2023-12-28T11:27:18;909.78;;;811.63;;
27740;SDS011;15134;48.768;9.184;2023-12-28T11:29:45;915.55;;;817.22;;
27740;SDS011;15134;48.768;9.184;2023-12-28T11:32:13;912.97;;;814.65;;
27740;SDS011;15134;48.768;9.184;2023-12-28T11:34:39;907.23;;;809.23;;
27740;SDS011;15134;48.768;9.184;2023-12-28T11:37:14;907.08;;;809.15;;
27740;SDS011;15134;48.768;9.184;2023-12-28T11:39:45;905.03;;;807.17;;
27740;SDS011;15134;48.768;9.184;2023-12-28T11:42:18;896.80;;;799.27;;
27740;SDS011;15134;48.768;9.184;2023-12-28T11:44:45;904.40;;;806.55;;
27740;SDS011;15134;48.768;9.184;2023-12-28T11:47:16;900.83;;;803.10;;
27740;SDS011;15134;48.768;9.184;2023-12-28T11:49:46;906.83;;;809.00;;
27740;SDS011;15134;48.768;9.184;2023-12-28T11:54:55;903.08;;;805.20;;
27740;SDS011;15134;48.768;9.184;2023-12-28T11:57:22;898.97;;;801.25;;
27740;SDS011;15134;48.768;9.184;2023-12-28T11:59:52;916.75;;;818.53;;
27740;SDS011;15134;48.768;9.184;2023-12-28T12:02:19;911.50;;;813.38;;
27740;SDS011;15134;48.768;9.184;2023-12-28T12:04:45;908.17;;;810.08;;
27740;SDS011;15134;48.768;9.184;2023-12-28T12:07:11;904.75;;;806.92;;
27740;SDS011;15134;48.768;9.184;2023-12-28T12:09:37;910.58;;;812.58;;
27740;SDS011;15134;48.768;9.184;2023-12-28T12:12:03;913.97;;;815.70;;
27740;SDS011;15134;48.768;9.184;2023-12-28T12:14:29;907.80;;;809.92;;
27740;SDS011;15134;48.768;9.184;2023-12-28T12:16:59;906.50;;;808.60;;
27740;SDS011;15134;48.768;9.184;2023-12-28T12:19:25;904.35;;;806.65;;
27740;SDS011;15134;48.768;9.184;2023-12-28T12:21:52;904.72;;;806.95;;
27740;SDS011;15134;48.768;9.184;2023-12-28T12:24:18;912.43;;;814.30;;
27740;SDS011;15134;48.768;9.184;2023-12-28T12:26:47;906.40;;;808.45;;
27740;SDS011;15134;48.768;9.184;2023-12-28T12:29:14;908.30;;;810.17;;
27740;SDS011;15134;48.768;9.184;2023-12-28T12:31:40;908.87;;;810.90;;
27740;SDS011;15134;48.768;9.184;2023-12-28T12:34:08;909.85;;;811.72;;
27740;SDS011;15134;48.768;9.184;2023-12-28T12:36:34;912.72;;;814.50;;
27740;SDS011;15134;48.768;9.184;2023-12-28T12:39:01;908.13;;;810.25;;
27740;SDS011;15134;48.768;9.184;2023-12-28T12:41:27;903.03;;;805.37;;
27740;SDS011;15134;48.768;9.184;2023-12-28T12:43:52;905.30;;;807.45;;
27740;SDS011;15134;48.768;9.184;2023-12-28T12:46:21;902.42;;;804.72;;
27740;SDS011;15134;48.768;9.184;2023-12-28T12:48:55;913.72;;;815.28;;
27740;SDS011;15134;48.768;9.184;2023-12-28T12:51:23;906.13;;;807.95;;
27740;SDS011;15134;48.768;9.184;2023-12-28T12:53:56;913.25;;;814.75;;
27740;SDS011;15134;48.768;9.184;2023-12-28T12:56:23;907.13;;;809.10;;
27740;SDS011;15134;48.768;9.184;2023-12-28T12:58:50;907.05;;;808.83;;
27740;SDS011;15134;48.768;9.184;2023-12-28T13:01:16;904.97;;;806.45;;
27740;SDS011;15134;48.768;9.184;2023-12-28T13:03:42;906.70;;;808.63;;
27740;SDS011;15134;48.768;9.184;2023-12-28T13:06:07;903.55;;;806.05;;
27740;SDS011;15134;48.768;9.184;2023-12-28T13:08:33;910.03;;;811.92;;
27740;SDS011;15134;48.768;9.184;2023-12-28T13:11:02;905.80;;;808.13;;
27740;SDS011;15134;48.768;9.184;2023-12-28T13:13:28;905.95;;;807.92;;
27740;SDS011;15134;48.768;9.184;2023-12-28T13:15:55;906.00;;;808.15;;
27740;SDS011;15134;48.768;9.184;2023-12-28T13:18:21;914.47;;;816.25;;
27740;SDS011;15134;48.768;9.184;2023-12-28T13:20:47;916.17;;;817.72;;
27740;SDS011;15134;48.768;9.184;2023-12-28T13:23:12;916.85;;;818.55;;
27740;SDS011;15134;48.768;9.184;2023-12-28T13:25:40;924.92;;;826.03;;
27740;SDS011;15134;48.768;9.184;2023-12-28T13:28:06;916.22;;;817.92;;
27740;SDS011;15134;48.768;9.184;2023-12-28T13:30:32;922.33;;;823.90;;
27740;SDS011;15134;48.768;9.184;2023-12-28T13:32:58;917.87;;;819.37;;
27740;SDS011;15134;48.768;9.184;2023-12-28T13:35:24;918.53;;;820.17;;
27740;SDS011;15134;48.768;9.184;2023-12-28T13:37:50;914.20;;;816.05;;
27740;SDS011;15134;48.768;9.184;2023-12-28T13:40:15;919.47;;;820.50;;
27740;SDS011;15134;48.768;9.184;2023-12-28T13:42:41;906.85;;;808.90;;
27740;SDS011;15134;48.768;9.184;2023-12-28T13:45:07;912.78;;;814.70;;
27740;SDS011;15134;48.768;9.184;2023-12-28T13:47:33;912.42;;;814.33;;
27740;SDS011;15134;48.768;9.184;2023-12-28T13:49:59;910.88;;;812.63;;
27740;SDS011;15134;48.768;9.184;2023-12-28T13:52:25;901.90;;;804.22;;
27740;SDS011;15134;48.768;9.184;2023-12-28T13:54:50;902.55;;;804.75;;
27740;SDS011;15134;48.768;9.184;2023-12-28T13:57:16;897.95;;;800.50;;
27740;SDS011;15134;48.768;9.184;2023-12-28T13:59:43;901.58;;;803.95;;
27740;SDS011;15134;48.768;9.184;2023-12-28T14:02:13;897.70;;;800.13;;